• Join FlightAware (Why Join?)
  • Login
  • US Flag 
 
07:43AM EST


 

Airport Tracker/Info


-or-


 

Live Flight TrackerFlight Track Log ✈ TAM3082 ✈ 06-May-2013 ✈ SBUL / UDI - SBSP / CGH

Flight Track Log - Related Links

Times and Time Zones

All times are in EDT time to prevent confusion due to time zone crossing. See the TAM3082 flight status page for this flight to view local times or setup timezone preferences in your user account.

Time Position Orientation Groundspeed Altitude Reporting Facility
EDT Latitude Longitude Course Direction KTS MPH feet Rate Location/Type
11:56AM -20.1236 -47.8249 163° South  Level Estimated
11:57AM -20.1966 -47.8011 163° South  Level Estimated
11:58AM -20.2695 -47.7773 163° South  Level Estimated
11:59AM -20.3424 -47.7535 163° South  Level Estimated
12:00PM -20.4154 -47.7297 163° South  Level Estimated
12:01PM -20.4883 -47.7058 163° South  Level Estimated
12:02PM -20.5892 -47.6728 163° South  Level Estimated
12:03PM -20.6901 -47.6397 163° South  Level Estimated
12:04PM -20.7910 -47.6066 163° South  Level Estimated
12:05PM -20.8918 -47.5735 163° South  Level Estimated
12:06PM -20.9927 -47.5402 163° South  Level Estimated
12:07PM -21.0935 -47.5070 163° South  Level Estimated
12:08PM -21.1943 -47.4737 163° South  Level Estimated
12:09PM -21.2952 -47.4404 163° South  Level Estimated
12:10PM -21.3960 -47.4070 163° South  Level Estimated
12:11PM -21.4968 -47.3736 163° South  Level Estimated
12:12PM -21.5976 -47.3401 163° South  Level Estimated
12:13PM -21.6984 -47.3065 163° South  Level Estimated
12:14PM -21.7992 -47.2730 163° South  Level Estimated
12:15PM -21.9000 -47.2393 163° South  Level Estimated
12:16PM -22.0008 -47.2057 163° South  Level Estimated
12:17PM -22.1016 -47.1720 163° South  Level Estimated
12:18PM -22.2023 -47.1382 163° South  Level Estimated
12:19PM -22.3031 -47.1044 163° South  Level Estimated
12:20PM -22.4039 -47.0705 163° South  Level Estimated
12:21PM -22.5046 -47.0366 163° South  Level Estimated
12:22PM -22.6054 -47.0027 163° South  Level Estimated
12:23PM -22.7061 -46.9687 163° South  Level Estimated
12:24PM -22.8068 -46.9346 163° South  Level Estimated
12:25PM -22.9075 -46.9005 163° South  Level Estimated
12:26PM -23.0082 -46.8663 163° South  Level Estimated
12:27PM -23.1089 -46.8321 163° South  Level Estimated
12:28PM -23.2097 -46.7979 163° South  Level Estimated
12:29PM -23.3103 -46.7635 163° South  Level Estimated
12:30PM -23.4110 -46.7292 163° South  Level Estimated
12:31PM -23.5117 -46.6948 163° South  Level Estimated
12:32PM -23.6124 -46.6603 163° South  Level Estimated
12:33PM -23.6267 -46.6554 163° South  Level Estimated
12:34PM -23.6267 -46.6554 114° Southeast  Level Estimated
12:35PM -23.6267 -46.6554 114° Southeast  Level Estimated
12:36PM -23.6267 -46.6554 114° Southeast  Level Estimated
12:37PM -23.6267 -46.6554 114° Southeast  Level Estimated
12:38PM -23.6267 -46.6554 114° Southeast  Level Estimated
12:39PM -23.6267 -46.6554 114° Southeast  Level Estimated
12:40PM -23.6267 -46.6554 114° Southeast  Level Estimated
12:41PM -23.6267 -46.6554 114° Southeast  Level Estimated
12:42PM -23.6267 -46.6554 114° Southeast  Level Estimated